sensor_id;sensor_type;location;lat;lon;timestamp;P1;durP1;ratioP1;P2;durP2;ratioP2
78858;SDS011;68210;52.032;4.634;2023-04-26T00:01:16;7.78;;;2.58;;
78858;SDS011;68210;52.032;4.634;2023-04-26T00:03:17;7.75;;;2.53;;
78858;SDS011;68210;52.032;4.634;2023-04-26T00:05:17;5.82;;;2.35;;
78858;SDS011;68210;52.032;4.634;2023-04-26T00:07:18;7.03;;;2.25;;
78858;SDS011;68210;52.032;4.634;2023-04-26T00:09:19;7.95;;;2.05;;
78858;SDS011;68210;52.032;4.634;2023-04-26T00:11:19;9.38;;;3.03;;
78858;SDS011;68210;52.032;4.634;2023-04-26T00:13:20;8.93;;;2.30;;
78858;SDS011;68210;52.032;4.634;2023-04-26T00:15:20;6.28;;;2.20;;
78858;SDS011;68210;52.032;4.634;2023-04-26T00:17:22;7.18;;;2.42;;
78858;SDS011;68210;52.032;4.634;2023-04-26T00:19:22;9.52;;;2.60;;
78858;SDS011;68210;52.032;4.634;2023-04-26T00:21:23;6.65;;;2.40;;
78858;SDS011;68210;52.032;4.634;2023-04-26T00:23:23;8.65;;;2.38;;
78858;SDS011;68210;52.032;4.634;2023-04-26T00:25:23;11.55;;;2.97;;
78858;SDS011;68210;52.032;4.634;2023-04-26T00:27:24;4.03;;;2.00;;
78858;SDS011;68210;52.032;4.634;2023-04-26T00:29:24;7.20;;;2.15;;
78858;SDS011;68210;52.032;4.634;2023-04-26T00:31:25;9.82;;;2.88;;
78858;SDS011;68210;52.032;4.634;2023-04-26T00:33:25;5.03;;;2.00;;
78858;SDS011;68210;52.032;4.634;2023-04-26T00:35:25;7.68;;;2.22;;
78858;SDS011;68210;52.032;4.634;2023-04-26T00:37:26;10.73;;;2.75;;
78858;SDS011;68210;52.032;4.634;2023-04-26T00:39:26;7.18;;;2.42;;
78858;SDS011;68210;52.032;4.634;2023-04-26T00:41:27;4.22;;;2.05;;
78858;SDS011;68210;52.032;4.634;2023-04-26T00:43:27;6.90;;;2.13;;
78858;SDS011;68210;52.032;4.634;2023-04-26T00:45:28;4.75;;;2.50;;
78858;SDS011;68210;52.032;4.634;2023-04-26T00:47:28;5.30;;;2.17;;
78858;SDS011;68210;52.032;4.634;2023-04-26T00:49:29;5.43;;;2.25;;
78858;SDS011;68210;52.032;4.634;2023-04-26T00:51:30;9.13;;;3.15;;
78858;SDS011;68210;52.032;4.634;2023-04-26T00:53:31;7.65;;;2.33;;
78858;SDS011;68210;52.032;4.634;2023-04-26T00:55:34;5.05;;;2.72;;
78858;SDS011;68210;52.032;4.634;2023-04-26T00:57:35;5.90;;;2.58;;
78858;SDS011;68210;52.032;4.634;2023-04-26T00:59:35;10.27;;;2.70;;
78858;SDS011;68210;52.032;4.634;2023-04-26T01:01:36;7.57;;;2.53;;
78858;SDS011;68210;52.032;4.634;2023-04-26T01:03:37;7.00;;;2.47;;
78858;SDS011;68210;52.032;4.634;2023-04-26T01:05:37;8.13;;;2.78;;
78858;SDS011;68210;52.032;4.634;2023-04-26T01:07:38;5.88;;;2.88;;
78858;SDS011;68210;52.032;4.634;2023-04-26T01:09:38;4.80;;;2.35;;
78858;SDS011;68210;52.032;4.634;2023-04-26T01:11:39;8.02;;;2.92;;
78858;SDS011;68210;52.032;4.634;2023-04-26T01:13:42;12.73;;;3.80;;
78858;SDS011;68210;52.032;4.634;2023-04-26T01:15:45;4.20;;;2.25;;
78858;SDS011;68210;52.032;4.634;2023-04-26T01:17:47;7.40;;;3.40;;
78858;SDS011;68210;52.032;4.634;2023-04-26T01:19:48;5.57;;;1.98;;
78858;SDS011;68210;52.032;4.634;2023-04-26T01:21:49;8.60;;;3.05;;
78858;SDS011;68210;52.032;4.634;2023-04-26T01:23:50;7.40;;;3.17;;
78858;SDS011;68210;52.032;4.634;2023-04-26T01:25:51;13.10;;;3.75;;
78858;SDS011;68210;52.032;4.634;2023-04-26T01:27:52;6.95;;;3.65;;
78858;SDS011;68210;52.032;4.634;2023-04-26T01:29:53;8.07;;;3.20;;
78858;SDS011;68210;52.032;4.634;2023-04-26T01:31:53;9.10;;;3.33;;
78858;SDS011;68210;52.032;4.634;2023-04-26T01:33:53;6.72;;;3.08;;
78858;SDS011;68210;52.032;4.634;2023-04-26T01:35:54;6.30;;;2.97;;
78858;SDS011;68210;52.032;4.634;2023-04-26T01:37:54;6.43;;;3.28;;
78858;SDS011;68210;52.032;4.634;2023-04-26T01:39:54;8.57;;;2.85;;
78858;SDS011;68210;52.032;4.634;2023-04-26T01:41:56;5.63;;;2.83;;
78858;SDS011;68210;52.032;4.634;2023-04-26T01:43:57;8.30;;;3.00;;
78858;SDS011;68210;52.032;4.634;2023-04-26T01:45:57;4.25;;;2.45;;
78858;SDS011;68210;52.032;4.634;2023-04-26T01:47:58;8.60;;;2.90;;
78858;SDS011;68210;52.032;4.634;2023-04-26T01:49:58;8.98;;;3.17;;
78858;SDS011;68210;52.032;4.634;2023-04-26T01:52:00;7.38;;;2.58;;
78858;SDS011;68210;52.032;4.634;2023-04-26T01:54:01;8.73;;;2.55;;
78858;SDS011;68210;52.032;4.634;2023-04-26T01:56:02;11.95;;;3.03;;
78858;SDS011;68210;52.032;4.634;2023-04-26T01:58:02;7.25;;;2.47;;
78858;SDS011;68210;52.032;4.634;2023-04-26T02:00:03;5.85;;;2.88;;
78858;SDS011;68210;52.032;4.634;2023-04-26T02:02:04;4.70;;;2.13;;
78858;SDS011;68210;52.032;4.634;2023-04-26T02:04:04;8.13;;;3.35;;
78858;SDS011;68210;52.032;4.634;2023-04-26T02:06:05;4.60;;;2.00;;
78858;SDS011;68210;52.032;4.634;2023-04-26T02:08:06;6.82;;;2.30;;
78858;SDS011;68210;52.032;4.634;2023-04-26T02:10:07;9.98;;;2.88;;
78858;SDS011;68210;52.032;4.634;2023-04-26T02:12:08;7.05;;;2.72;;
78858;SDS011;68210;52.032;4.634;2023-04-26T02:14:08;8.57;;;2.80;;
78858;SDS011;68210;52.032;4.634;2023-04-26T02:16:08;9.60;;;3.20;;
78858;SDS011;68210;52.032;4.634;2023-04-26T02:18:09;8.73;;;3.38;;
78858;SDS011;68210;52.032;4.634;2023-04-26T02:20:10;7.43;;;2.53;;
78858;SDS011;68210;52.032;4.634;2023-04-26T02:22:11;7.50;;;2.80;;
78858;SDS011;68210;52.032;4.634;2023-04-26T02:24:12;5.30;;;2.50;;
78858;SDS011;68210;52.032;4.634;2023-04-26T02:26:12;6.07;;;2.97;;
78858;SDS011;68210;52.032;4.634;2023-04-26T02:28:13;6.35;;;3.45;;
78858;SDS011;68210;52.032;4.634;2023-04-26T02:30:15;4.45;;;2.47;;
78858;SDS011;68210;52.032;4.634;2023-04-26T02:32:15;7.28;;;2.92;;
78858;SDS011;68210;52.032;4.634;2023-04-26T02:34:16;7.45;;;2.72;;
78858;SDS011;68210;52.032;4.634;2023-04-26T02:36:16;6.82;;;2.70;;
78858;SDS011;68210;52.032;4.634;2023-04-26T02:38:16;6.65;;;2.70;;
78858;SDS011;68210;52.032;4.634;2023-04-26T02:40:17;10.27;;;3.33;;
78858;SDS011;68210;52.032;4.634;2023-04-26T02:42:18;5.90;;;2.95;;
78858;SDS011;68210;52.032;4.634;2023-04-26T02:44:18;9.32;;;2.80;;
78858;SDS011;68210;52.032;4.634;2023-04-26T02:46:19;6.07;;;2.95;;
78858;SDS011;68210;52.032;4.634;2023-04-26T02:48:20;11.57;;;3.92;;
78858;SDS011;68210;52.032;4.634;2023-04-26T02:50:20;15.05;;;3.53;;
78858;SDS011;68210;52.032;4.634;2023-04-26T02:52:20;7.18;;;3.20;;
78858;SDS011;68210;52.032;4.634;2023-04-26T02:54:21;8.18;;;3.45;;
78858;SDS011;68210;52.032;4.634;2023-04-26T02:56:21;7.35;;;3.10;;
78858;SDS011;68210;52.032;4.634;2023-04-26T02:58:21;12.15;;;2.78;;
78858;SDS011;68210;52.032;4.634;2023-04-26T03:00:22;6.82;;;2.97;;
78858;SDS011;68210;52.032;4.634;2023-04-26T03:02:23;10.40;;;3.55;;
78858;SDS011;68210;52.032;4.634;2023-04-26T03:04:23;10.77;;;3.80;;
78858;SDS011;68210;52.032;4.634;2023-04-26T03:06:24;10.77;;;3.55;;
78858;SDS011;68210;52.032;4.634;2023-04-26T03:08:24;12.77;;;3.30;;
78858;SDS011;68210;52.032;4.634;2023-04-26T03:10:24;7.28;;;2.90;;
78858;SDS011;68210;52.032;4.634;2023-04-26T03:12:25;6.90;;;3.10;;
78858;SDS011;68210;52.032;4.634;2023-04-26T03:14:25;8.30;;;3.35;;
78858;SDS011;68210;52.032;4.634;2023-04-26T03:16:26;8.18;;;4.20;;
78858;SDS011;68210;52.032;4.634;2023-04-26T03:18:27;6.55;;;2.75;;
78858;SDS011;68210;52.032;4.634;2023-04-26T03:20:27;10.68;;;4.03;;
78858;SDS011;68210;52.032;4.634;2023-04-26T03:22:28;9.93;;;3.50;;
78858;SDS011;68210;52.032;4.634;2023-04-26T03:24:28;6.40;;;3.00;;
78858;SDS011;68210;52.032;4.634;2023-04-26T03:26:28;6.80;;;2.58;;
78858;SDS011;68210;52.032;4.634;2023-04-26T03:28:29;7.30;;;3.38;;
78858;SDS011;68210;52.032;4.634;2023-04-26T03:30:30;7.90;;;2.83;;
78858;SDS011;68210;52.032;4.634;2023-04-26T03:32:30;10.23;;;2.90;;
78858;SDS011;68210;52.032;4.634;2023-04-26T03:34:30;9.60;;;3.30;;
78858;SDS011;68210;52.032;4.634;2023-04-26T03:36:31;7.28;;;2.33;;
78858;SDS011;68210;52.032;4.634;2023-04-26T03:38:31;9.23;;;3.10;;
78858;SDS011;68210;52.032;4.634;2023-04-26T03:40:31;5.18;;;2.35;;
78858;SDS011;68210;52.032;4.634;2023-04-26T03:42:32;9.18;;;3.38;;
78858;SDS011;68210;52.032;4.634;2023-04-26T03:44:32;10.25;;;3.40;;
78858;SDS011;68210;52.032;4.634;2023-04-26T03:46:32;11.90;;;4.13;;
78858;SDS011;68210;52.032;4.634;2023-04-26T03:48:33;12.73;;;3.75;;
78858;SDS011;68210;52.032;4.634;2023-04-26T03:50:33;16.88;;;4.25;;
78858;SDS011;68210;52.032;4.634;2023-04-26T03:52:34;10.23;;;3.63;;
78858;SDS011;68210;52.032;4.634;2023-04-26T03:54:34;4.72;;;2.30;;
78858;SDS011;68210;52.032;4.634;2023-04-26T03:56:35;6.57;;;3.00;;
78858;SDS011;68210;52.032;4.634;2023-04-26T03:58:35;7.50;;;3.30;;
78858;SDS011;68210;52.032;4.634;2023-04-26T04:00:36;6.63;;;3.20;;
78858;SDS011;68210;52.032;4.634;2023-04-26T04:02:37;9.57;;;3.65;;
78858;SDS011;68210;52.032;4.634;2023-04-26T04:04:37;13.98;;;3.85;;
78858;SDS011;68210;52.032;4.634;2023-04-26T04:06:38;9.98;;;3.97;;
78858;SDS011;68210;52.032;4.634;2023-04-26T04:08:38;6.80;;;3.03;;
78858;SDS011;68210;52.032;4.634;2023-04-26T04:10:39;10.63;;;3.40;;
78858;SDS011;68210;52.032;4.634;2023-04-26T04:12:41;7.63;;;3.33;;
78858;SDS011;68210;52.032;4.634;2023-04-26T04:14:41;9.73;;;3.10;;
78858;SDS011;68210;52.032;4.634;2023-04-26T04:16:42;7.13;;;3.00;;
78858;SDS011;68210;52.032;4.634;2023-04-26T04:18:42;10.55;;;3.50;;
78858;SDS011;68210;52.032;4.634;2023-04-26T04:20:43;11.88;;;3.00;;
78858;SDS011;68210;52.032;4.634;2023-04-26T04:22:43;8.82;;;3.50;;
78858;SDS011;68210;52.032;4.634;2023-04-26T04:24:44;8.07;;;3.55;;
78858;SDS011;68210;52.032;4.634;2023-04-26T04:26:44;9.82;;;2.92;;
78858;SDS011;68210;52.032;4.634;2023-04-26T04:28:45;7.20;;;3.08;;
78858;SDS011;68210;52.032;4.634;2023-04-26T04:30:46;10.25;;;3.92;;
78858;SDS011;68210;52.032;4.634;2023-04-26T04:32:47;9.70;;;3.67;;
78858;SDS011;68210;52.032;4.634;2023-04-26T04:34:48;12.55;;;3.78;;
78858;SDS011;68210;52.032;4.634;2023-04-26T04:36:49;11.13;;;3.78;;
78858;SDS011;68210;52.032;4.634;2023-04-26T04:38:49;14.63;;;4.35;;
78858;SDS011;68210;52.032;4.634;2023-04-26T04:40:50;10.50;;;3.83;;
78858;SDS011;68210;52.032;4.634;2023-04-26T04:42:51;9.98;;;3.83;;
78858;SDS011;68210;52.032;4.634;2023-04-26T04:44:55;13.13;;;3.47;;
78858;SDS011;68210;52.032;4.634;2023-04-26T04:46:56;11.85;;;4.22;;
78858;SDS011;68210;52.032;4.634;2023-04-26T04:48:57;8.45;;;3.58;;
78858;SDS011;68210;52.032;4.634;2023-04-26T04:50:57;16.33;;;4.97;;
78858;SDS011;68210;52.032;4.634;2023-04-26T04:52:58;14.65;;;4.03;;
78858;SDS011;68210;52.032;4.634;2023-04-26T04:54:58;17.30;;;4.13;;
78858;SDS011;68210;52.032;4.634;2023-04-26T04:57:00;17.33;;;4.93;;
78858;SDS011;68210;52.032;4.634;2023-04-26T04:59:00;15.98;;;4.40;;
78858;SDS011;68210;52.032;4.634;2023-04-26T05:01:01;9.52;;;3.60;;
78858;SDS011;68210;52.032;4.634;2023-04-26T05:03:01;10.75;;;3.17;;
78858;SDS011;68210;52.032;4.634;2023-04-26T05:05:02;14.07;;;5.10;;
78858;SDS011;68210;52.032;4.634;2023-04-26T05:07:03;9.73;;;4.45;;
78858;SDS011;68210;52.032;4.634;2023-04-26T05:09:05;10.23;;;3.72;;
78858;SDS011;68210;52.032;4.634;2023-04-26T05:11:05;16.73;;;4.20;;
78858;SDS011;68210;52.032;4.634;2023-04-26T05:13:06;20.63;;;4.28;;
78858;SDS011;68210;52.032;4.634;2023-04-26T05:15:06;11.95;;;4.85;;
78858;SDS011;68210;52.032;4.634;2023-04-26T05:17:07;13.77;;;4.10;;
78858;SDS011;68210;52.032;4.634;2023-04-26T05:19:07;10.35;;;3.28;;
78858;SDS011;68210;52.032;4.634;2023-04-26T05:21:08;15.98;;;4.35;;
78858;SDS011;68210;52.032;4.634;2023-04-26T05:23:09;10.27;;;3.80;;
78858;SDS011;68210;52.032;4.634;2023-04-26T05:25:09;12.05;;;4.47;;
78858;SDS011;68210;52.032;4.634;2023-04-26T05:27:10;15.88;;;4.65;;
78858;SDS011;68210;52.032;4.634;2023-04-26T05:29:11;12.63;;;4.32;;
78858;SDS011;68210;52.032;4.634;2023-04-26T05:31:11;10.30;;;4.10;;
78858;SDS011;68210;52.032;4.634;2023-04-26T05:33:12;15.25;;;4.60;;
78858;SDS011;68210;52.032;4.634;2023-04-26T05:35:12;19.75;;;5.80;;
78858;SDS011;68210;52.032;4.634;2023-04-26T05:37:13;13.73;;;4.22;;
78858;SDS011;68210;52.032;4.634;2023-04-26T05:39:13;18.50;;;5.45;;
78858;SDS011;68210;52.032;4.634;2023-04-26T05:41:13;13.90;;;4.80;;
78858;SDS011;68210;52.032;4.634;2023-04-26T05:43:14;23.23;;;4.85;;
78858;SDS011;68210;52.032;4.634;2023-04-26T05:45:14;13.93;;;4.28;;
78858;SDS011;68210;52.032;4.634;2023-04-26T05:47:15;18.95;;;4.90;;
78858;SDS011;68210;52.032;4.634;2023-04-26T05:49:15;9.20;;;3.85;;
78858;SDS011;68210;52.032;4.634;2023-04-26T05:51:15;13.27;;;4.65;;
78858;SDS011;68210;52.032;4.634;2023-04-26T05:53:17;11.65;;;4.32;;
78858;SDS011;68210;52.032;4.634;2023-04-26T05:55:18;14.00;;;4.65;;
78858;SDS011;68210;52.032;4.634;2023-04-26T05:57:20;15.95;;;4.35;;
78858;SDS011;68210;52.032;4.634;2023-04-26T05:59:20;8.43;;;3.58;;
78858;SDS011;68210;52.032;4.634;2023-04-26T06:01:21;13.77;;;4.57;;
78858;SDS011;68210;52.032;4.634;2023-04-26T06:03:21;11.35;;;3.80;;
78858;SDS011;68210;52.032;4.634;2023-04-26T06:05:22;11.35;;;3.92;;
78858;SDS011;68210;52.032;4.634;2023-04-26T06:07:22;8.43;;;3.42;;
78858;SDS011;68210;52.032;4.634;2023-04-26T06:09:22;15.57;;;4.00;;
78858;SDS011;68210;52.032;4.634;2023-04-26T06:11:24;13.75;;;3.80;;
78858;SDS011;68210;52.032;4.634;2023-04-26T06:13:25;12.10;;;3.50;;
78858;SDS011;68210;52.032;4.634;2023-04-26T06:15:26;12.45;;;3.83;;
78858;SDS011;68210;52.032;4.634;2023-04-26T06:17:26;9.52;;;3.58;;
78858;SDS011;68210;52.032;4.634;2023-04-26T06:19:27;6.97;;;3.10;;
78858;SDS011;68210;52.032;4.634;2023-04-26T06:21:27;7.68;;;2.90;;
78858;SDS011;68210;52.032;4.634;2023-04-26T06:23:27;10.35;;;3.05;;
78858;SDS011;68210;52.032;4.634;2023-04-26T06:25:28;6.82;;;2.45;;
78858;SDS011;68210;52.032;4.634;2023-04-26T06:27:28;6.57;;;2.33;;
78858;SDS011;68210;52.032;4.634;2023-04-26T06:29:31;7.25;;;1.58;;
78858;SDS011;68210;52.032;4.634;2023-04-26T06:31:32;6.07;;;2.33;;
78858;SDS011;68210;52.032;4.634;2023-04-26T06:33:34;7.05;;;2.50;;
78858;SDS011;68210;52.032;4.634;2023-04-26T06:35:40;8.18;;;2.08;;
78858;SDS011;68210;52.032;4.634;2023-04-26T06:37:41;6.18;;;2.13;;
78858;SDS011;68210;52.032;4.634;2023-04-26T06:39:41;6.20;;;2.40;;
78858;SDS011;68210;52.032;4.634;2023-04-26T06:41:41;8.45;;;2.70;;
78858;SDS011;68210;52.032;4.634;2023-04-26T06:43:42;10.48;;;3.47;;
78858;SDS011;68210;52.032;4.634;2023-04-26T06:45:42;5.28;;;2.90;;
78858;SDS011;68210;52.032;4.634;2023-04-26T06:47:43;8.32;;;2.20;;
78858;SDS011;68210;52.032;4.634;2023-04-26T06:49:43;9.38;;;2.67;;
78858;SDS011;68210;52.032;4.634;2023-04-26T06:51:44;6.45;;;2.97;;
78858;SDS011;68210;52.032;4.634;2023-04-26T06:53:44;7.03;;;2.65;;
78858;SDS011;68210;52.032;4.634;2023-04-26T06:55:45;5.70;;;2.08;;
78858;SDS011;68210;52.032;4.634;2023-04-26T06:57:45;5.30;;;1.73;;
78858;SDS011;68210;52.032;4.634;2023-04-26T06:59:46;5.57;;;1.90;;
78858;SDS011;68210;52.032;4.634;2023-04-26T07:01:47;3.65;;;1.73;;
78858;SDS011;68210;52.032;4.634;2023-04-26T07:03:47;4.20;;;1.52;;
78858;SDS011;68210;52.032;4.634;2023-04-26T07:05:47;4.40;;;1.33;;
78858;SDS011;68210;52.032;4.634;2023-04-26T07:07:48;6.68;;;2.25;;
78858;SDS011;68210;52.032;4.634;2023-04-26T07:09:49;3.67;;;1.90;;
78858;SDS011;68210;52.032;4.634;2023-04-26T07:11:49;5.32;;;1.75;;
78858;SDS011;68210;52.032;4.634;2023-04-26T07:13:50;6.63;;;1.80;;
78858;SDS011;68210;52.032;4.634;2023-04-26T07:15:50;5.47;;;2.00;;
78858;SDS011;68210;52.032;4.634;2023-04-26T07:17:51;3.38;;;1.80;;
78858;SDS011;68210;52.032;4.634;2023-04-26T07:19:51;13.45;;;2.80;;
78858;SDS011;68210;52.032;4.634;2023-04-26T07:21:51;7.20;;;2.60;;
78858;SDS011;68210;52.032;4.634;2023-04-26T07:23:55;10.05;;;2.65;;
78858;SDS011;68210;52.032;4.634;2023-04-26T07:25:56;6.63;;;2.40;;
78858;SDS011;68210;52.032;4.634;2023-04-26T07:27:56;9.73;;;2.15;;
78858;SDS011;68210;52.032;4.634;2023-04-26T07:29:56;6.50;;;1.80;;
78858;SDS011;68210;52.032;4.634;2023-04-26T07:31:57;6.68;;;2.03;;
78858;SDS011;68210;52.032;4.634;2023-04-26T07:33:57;5.85;;;1.73;;
78858;SDS011;68210;52.032;4.634;2023-04-26T07:35:58;5.57;;;2.28;;
78858;SDS011;68210;52.032;4.634;2023-04-26T07:38:00;3.33;;;1.70;;
78858;SDS011;68210;52.032;4.634;2023-04-26T07:40:01;3.88;;;2.00;;
78858;SDS011;68210;52.032;4.634;2023-04-26T07:42:02;4.13;;;1.70;;
78858;SDS011;68210;52.032;4.634;2023-04-26T07:44:02;3.92;;;1.73;;
78858;SDS011;68210;52.032;4.634;2023-04-26T07:46:03;4.72;;;1.67;;
78858;SDS011;68210;52.032;4.634;2023-04-26T07:48:03;6.35;;;2.03;;
78858;SDS011;68210;52.032;4.634;2023-04-26T07:50:04;2.58;;;1.25;;
78858;SDS011;68210;52.032;4.634;2023-04-26T07:52:05;5.05;;;1.38;;
78858;SDS011;68210;52.032;4.634;2023-04-26T07:54:05;4.57;;;1.20;;
78858;SDS011;68210;52.032;4.634;2023-04-26T07:56:06;4.18;;;1.45;;
78858;SDS011;68210;52.032;4.634;2023-04-26T07:58:07;4.38;;;1.20;;
78858;SDS011;68210;52.032;4.634;2023-04-26T08:00:08;6.40;;;1.30;;
78858;SDS011;68210;52.032;4.634;2023-04-26T08:02:09;1.83;;;1.00;;
78858;SDS011;68210;52.032;4.634;2023-04-26T08:04:09;5.65;;;1.33;;
78858;SDS011;68210;52.032;4.634;2023-04-26T08:06:10;2.60;;;1.13;;
78858;SDS011;68210;52.032;4.634;2023-04-26T08:08:10;4.35;;;1.15;;
78858;SDS011;68210;52.032;4.634;2023-04-26T08:10:11;1.55;;;0.80;;
78858;SDS011;68210;52.032;4.634;2023-04-26T08:12:12;4.65;;;1.10;;
78858;SDS011;68210;52.032;4.634;2023-04-26T08:14:12;3.22;;;1.50;;
78858;SDS011;68210;52.032;4.634;2023-04-26T08:16:13;3.30;;;0.98;;
78858;SDS011;68210;52.032;4.634;2023-04-26T08:18:14;2.67;;;0.98;;
78858;SDS011;68210;52.032;4.634;2023-04-26T08:20:14;3.55;;;1.13;;
78858;SDS011;68210;52.032;4.634;2023-04-26T08:22:15;7.72;;;1.25;;
78858;SDS011;68210;52.032;4.634;2023-04-26T08:24:15;2.10;;;1.10;;
78858;SDS011;68210;52.032;4.634;2023-04-26T08:26:16;4.25;;;1.00;;
78858;SDS011;68210;52.032;4.634;2023-04-26T08:28:16;1.85;;;1.10;;
78858;SDS011;68210;52.032;4.634;2023-04-26T08:30:17;2.92;;;1.15;;
78858;SDS011;68210;52.032;4.634;2023-04-26T08:32:18;3.30;;;0.90;;
78858;SDS011;68210;52.032;4.634;2023-04-26T08:34:18;4.45;;;1.98;;
78858;SDS011;68210;52.032;4.634;2023-04-26T08:36:19;1.80;;;0.75;;
78858;SDS011;68210;52.032;4.634;2023-04-26T08:38:19;2.63;;;1.00;;
78858;SDS011;68210;52.032;4.634;2023-04-26T08:40:22;3.42;;;1.65;;
78858;SDS011;68210;52.032;4.634;2023-04-26T08:42:25;5.88;;;1.40;;
78858;SDS011;68210;52.032;4.634;2023-04-26T08:44:27;3.38;;;1.00;;
78858;SDS011;68210;52.032;4.634;2023-04-26T08:46:28;3.72;;;0.95;;
78858;SDS011;68210;52.032;4.634;2023-04-26T08:48:30;1.65;;;0.85;;
78858;SDS011;68210;52.032;4.634;2023-04-26T08:50:34;3.72;;;1.10;;
78858;SDS011;68210;52.032;4.634;2023-04-26T08:52:36;2.92;;;1.17;;
78858;SDS011;68210;52.032;4.634;2023-04-26T08:54:38;4.18;;;1.08;;
78858;SDS011;68210;52.032;4.634;2023-04-26T08:56:40;3.55;;;1.10;;
78858;SDS011;68210;52.032;4.634;2023-04-26T08:58:43;3.25;;;1.10;;
78858;SDS011;68210;52.032;4.634;2023-04-26T09:00:43;2.25;;;1.02;;
78858;SDS011;68210;52.032;4.634;2023-04-26T09:02:48;2.47;;;1.00;;
78858;SDS011;68210;52.032;4.634;2023-04-26T09:04:52;4.88;;;1.20;;
78858;SDS011;68210;52.032;4.634;2023-04-26T09:06:53;2.75;;;0.95;;
78858;SDS011;68210;52.032;4.634;2023-04-26T09:09:00;3.22;;;1.00;;
78858;SDS011;68210;52.032;4.634;2023-04-26T09:11:03;4.28;;;1.20;;
78858;SDS011;68210;52.032;4.634;2023-04-26T09:13:04;4.75;;;1.48;;
78858;SDS011;68210;52.032;4.634;2023-04-26T09:15:04;3.83;;;1.00;;
78858;SDS011;68210;52.032;4.634;2023-04-26T09:17:27;2.13;;;1.00;;
78858;SDS011;68210;52.032;4.634;2023-04-26T09:19:39;4.72;;;1.33;;
78858;SDS011;68210;52.032;4.634;2023-04-26T09:21:44;5.60;;;1.02;;
78858;SDS011;68210;52.032;4.634;2023-04-26T09:23:58;3.53;;;0.90;;
78858;SDS011;68210;52.032;4.634;2023-04-26T09:26:19;3.30;;;0.98;;
78858;SDS011;68210;52.032;4.634;2023-04-26T09:28:21;6.10;;;1.45;;
78858;SDS011;68210;52.032;4.634;2023-04-26T09:30:23;5.28;;;1.30;;
78858;SDS011;68210;52.032;4.634;2023-04-26T09:32:24;4.22;;;1.58;;
78858;SDS011;68210;52.032;4.634;2023-04-26T09:34:25;3.80;;;1.00;;
78858;SDS011;68210;52.032;4.634;2023-04-26T09:36:25;3.35;;;1.10;;
78858;SDS011;68210;52.032;4.634;2023-04-26T09:38:26;3.40;;;1.17;;
78858;SDS011;68210;52.032;4.634;2023-04-26T09:40:28;2.78;;;1.00;;
78858;SDS011;68210;52.032;4.634;2023-04-26T09:42:30;7.53;;;2.45;;
78858;SDS011;68210;52.032;4.634;2023-04-26T09:44:34;2.92;;;1.02;;
78858;SDS011;68210;52.032;4.634;2023-04-26T09:46:35;4.40;;;1.20;;
78858;SDS011;68210;52.032;4.634;2023-04-26T09:48:35;3.42;;;1.80;;
78858;SDS011;68210;52.032;4.634;2023-04-26T09:50:35;3.45;;;1.40;;
78858;SDS011;68210;52.032;4.634;2023-04-26T09:52:42;3.55;;;1.25;;
78858;SDS011;68210;52.032;4.634;2023-04-26T09:54:50;3.80;;;1.10;;
78858;SDS011;68210;52.032;4.634;2023-04-26T09:56:58;6.78;;;1.48;;
78858;SDS011;68210;52.032;4.634;2023-04-26T09:59:00;5.38;;;1.30;;
78858;SDS011;68210;52.032;4.634;2023-04-26T10:01:04;2.40;;;1.15;;
78858;SDS011;68210;52.032;4.634;2023-04-26T10:03:06;2.95;;;1.20;;
78858;SDS011;68210;52.032;4.634;2023-04-26T10:05:08;4.60;;;1.23;;
78858;SDS011;68210;52.032;4.634;2023-04-26T10:07:09;1.48;;;0.93;;
78858;SDS011;68210;52.032;4.634;2023-04-26T10:09:10;3.20;;;1.10;;
78858;SDS011;68210;52.032;4.634;2023-04-26T10:11:10;1.85;;;1.20;;
78858;SDS011;68210;52.032;4.634;2023-04-26T10:13:11;4.43;;;1.30;;
78858;SDS011;68210;52.032;4.634;2023-04-26T10:15:14;2.72;;;1.30;;
78858;SDS011;68210;52.032;4.634;2023-04-26T10:17:14;3.67;;;1.45;;
78858;SDS011;68210;52.032;4.634;2023-04-26T10:19:15;2.53;;;1.05;;
78858;SDS011;68210;52.032;4.634;2023-04-26T10:21:20;2.05;;;1.17;;
78858;SDS011;68210;52.032;4.634;2023-04-26T10:23:30;1.38;;;1.05;;
78858;SDS011;68210;52.032;4.634;2023-04-26T10:25:35;2.90;;;1.30;;
78858;SDS011;68210;52.032;4.634;2023-04-26T10:34:17;2.03;;;1.20;;
78858;SDS011;68210;52.032;4.634;2023-04-26T10:36:19;3.67;;;1.30;;
78858;SDS011;68210;52.032;4.634;2023-04-26T10:38:20;1.92;;;0.98;;
78858;SDS011;68210;52.032;4.634;2023-04-26T10:40:24;3.10;;;1.20;;
78858;SDS011;68210;52.032;4.634;2023-04-26T10:42:28;2.70;;;0.90;;
78858;SDS011;68210;52.032;4.634;2023-04-26T10:44:38;2.22;;;1.10;;
78858;SDS011;68210;52.032;4.634;2023-04-26T10:46:40;4.50;;;1.05;;
78858;SDS011;68210;52.032;4.634;2023-04-26T10:48:42;2.58;;;1.08;;
78858;SDS011;68210;52.032;4.634;2023-04-26T10:55:02;3.85;;;1.42;;
78858;SDS011;68210;52.032;4.634;2023-04-26T10:57:05;3.38;;;1.10;;
78858;SDS011;68210;52.032;4.634;2023-04-26T10:59:09;2.95;;;1.20;;
78858;SDS011;68210;52.032;4.634;2023-04-26T11:03:21;2.47;;;0.90;;
78858;SDS011;68210;52.032;4.634;2023-04-26T11:07:46;3.72;;;1.05;;
78858;SDS011;68210;52.032;4.634;2023-04-26T11:10:02;10.20;;;1.60;;
78858;SDS011;68210;52.032;4.634;2023-04-26T11:12:13;3.80;;;1.20;;
78858;SDS011;68210;52.032;4.634;2023-04-26T11:14:14;5.18;;;1.17;;
78858;SDS011;68210;52.032;4.634;2023-04-26T11:16:15;2.47;;;1.25;;
78858;SDS011;68210;52.032;4.634;2023-04-26T11:18:17;3.28;;;1.33;;
78858;SDS011;68210;52.032;4.634;2023-04-26T11:20:18;3.85;;;1.13;;
78858;SDS011;68210;52.032;4.634;2023-04-26T11:22:20;3.35;;;1.00;;
78858;SDS011;68210;52.032;4.634;2023-04-26T11:24:25;3.17;;;1.45;;
78858;SDS011;68210;52.032;4.634;2023-04-26T11:26:32;2.30;;;1.10;;
78858;SDS011;68210;52.032;4.634;2023-04-26T11:28:36;3.47;;;1.20;;
78858;SDS011;68210;52.032;4.634;2023-04-26T11:30:38;1.77;;;1.10;;
78858;SDS011;68210;52.032;4.634;2023-04-26T11:32:38;3.25;;;1.00;;
78858;SDS011;68210;52.032;4.634;2023-04-26T11:34:38;4.30;;;1.42;;
78858;SDS011;68210;52.032;4.634;2023-04-26T11:36:39;2.90;;;0.93;;
78858;SDS011;68210;52.032;4.634;2023-04-26T11:38:40;6.97;;;1.20;;
78858;SDS011;68210;52.032;4.634;2023-04-26T11:40:40;2.30;;;1.00;;
78858;SDS011;68210;52.032;4.634;2023-04-26T11:42:42;4.95;;;1.75;;
78858;SDS011;68210;52.032;4.634;2023-04-26T11:44:43;1.70;;;1.20;;
78858;SDS011;68210;52.032;4.634;2023-04-26T11:46:44;4.57;;;1.98;;
78858;SDS011;68210;52.032;4.634;2023-04-26T11:48:45;5.60;;;1.30;;
78858;SDS011;68210;52.032;4.634;2023-04-26T11:50:45;2.40;;;1.25;;
78858;SDS011;68210;52.032;4.634;2023-04-26T11:52:46;2.53;;;1.35;;
78858;SDS011;68210;52.032;4.634;2023-04-26T11:54:46;4.50;;;1.42;;
78858;SDS011;68210;52.032;4.634;2023-04-26T11:56:47;3.63;;;1.17;;
78858;SDS011;68210;52.032;4.634;2023-04-26T11:58:48;4.90;;;1.17;;
78858;SDS011;68210;52.032;4.634;2023-04-26T12:03:03;4.07;;;1.35;;
78858;SDS011;68210;52.032;4.634;2023-04-26T12:05:05;3.83;;;1.00;;
78858;SDS011;68210;52.032;4.634;2023-04-26T12:11:10;1.48;;;1.20;;
78858;SDS011;68210;52.032;4.634;2023-04-26T12:13:12;3.13;;;1.30;;
78858;SDS011;68210;52.032;4.634;2023-04-26T12:15:13;4.63;;;1.40;;
78858;SDS011;68210;52.032;4.634;2023-04-26T12:17:13;3.20;;;1.30;;
78858;SDS011;68210;52.032;4.634;2023-04-26T12:19:14;4.28;;;1.30;;
78858;SDS011;68210;52.032;4.634;2023-04-26T12:21:16;3.25;;;1.20;;
78858;SDS011;68210;52.032;4.634;2023-04-26T12:23:16;3.53;;;1.38;;
78858;SDS011;68210;52.032;4.634;2023-04-26T12:25:17;3.15;;;1.85;;
78858;SDS011;68210;52.032;4.634;2023-04-26T12:27:21;2.30;;;1.20;;
78858;SDS011;68210;52.032;4.634;2023-04-26T12:29:21;12.18;;;2.80;;
78858;SDS011;68210;52.032;4.634;2023-04-26T12:31:22;9.13;;;4.13;;